sensor_id;sensor_type;location;lat;lon;timestamp;P1;durP1;ratioP1;P2;durP2;ratioP2
52368;SDS011;38298;50.346;3.526;2023-01-10T00:02:10;10.48;;;1.98;;
52368;SDS011;38298;50.346;3.526;2023-01-10T00:04:36;19.90;;;2.92;;
52368;SDS011;38298;50.346;3.526;2023-01-10T00:07:02;18.55;;;1.88;;
52368;SDS011;38298;50.346;3.526;2023-01-10T00:09:28;13.13;;;2.00;;
52368;SDS011;38298;50.346;3.526;2023-01-10T00:11:53;18.95;;;1.80;;
52368;SDS011;38298;50.346;3.526;2023-01-10T00:14:38;16.38;;;1.85;;
52368;SDS011;38298;50.346;3.526;2023-01-10T00:17:04;14.73;;;1.98;;
52368;SDS011;38298;50.346;3.526;2023-01-10T00:19:30;14.25;;;1.80;;
52368;SDS011;38298;50.346;3.526;2023-01-10T00:21:56;11.07;;;1.80;;
52368;SDS011;38298;50.346;3.526;2023-01-10T00:24:26;20.58;;;2.13;;
52368;SDS011;38298;50.346;3.526;2023-01-10T00:26:52;11.60;;;1.77;;
52368;SDS011;38298;50.346;3.526;2023-01-10T00:29:19;16.83;;;2.13;;
52368;SDS011;38298;50.346;3.526;2023-01-10T00:31:46;12.90;;;1.83;;
52368;SDS011;38298;50.346;3.526;2023-01-10T00:34:12;9.85;;;2.13;;
52368;SDS011;38298;50.346;3.526;2023-01-10T00:36:38;23.05;;;2.50;;
52368;SDS011;38298;50.346;3.526;2023-01-10T00:39:04;10.30;;;1.67;;
52368;SDS011;38298;50.346;3.526;2023-01-10T00:41:30;18.90;;;2.70;;
52368;SDS011;38298;50.346;3.526;2023-01-10T00:44:15;11.63;;;1.33;;
52368;SDS011;38298;50.346;3.526;2023-01-10T00:46:41;10.20;;;2.00;;
52368;SDS011;38298;50.346;3.526;2023-01-10T00:49:07;20.55;;;2.25;;
52368;SDS011;38298;50.346;3.526;2023-01-10T00:51:33;9.90;;;1.35;;
52368;SDS011;38298;50.346;3.526;2023-01-10T00:53:59;16.50;;;1.73;;
52368;SDS011;38298;50.346;3.526;2023-01-10T00:56:25;16.33;;;2.05;;
52368;SDS011;38298;50.346;3.526;2023-01-10T00:58:52;14.25;;;1.90;;
52368;SDS011;38298;50.346;3.526;2023-01-10T01:01:18;13.85;;;1.90;;
52368;SDS011;38298;50.346;3.526;2023-01-10T01:03:44;15.70;;;2.53;;
52368;SDS011;38298;50.346;3.526;2023-01-10T01:06:10;13.07;;;1.55;;
52368;SDS011;38298;50.346;3.526;2023-01-10T01:08:36;12.18;;;1.88;;
52368;SDS011;38298;50.346;3.526;2023-01-10T01:11:02;14.57;;;2.00;;
52368;SDS011;38298;50.346;3.526;2023-01-10T01:13:28;18.05;;;3.03;;
52368;SDS011;38298;50.346;3.526;2023-01-10T01:15:57;18.88;;;2.20;;
52368;SDS011;38298;50.346;3.526;2023-01-10T01:18:24;17.23;;;3.03;;
52368;SDS011;38298;50.346;3.526;2023-01-10T01:20:51;8.10;;;1.80;;
52368;SDS011;38298;50.346;3.526;2023-01-10T01:23:18;23.25;;;2.60;;
52368;SDS011;38298;50.346;3.526;2023-01-10T01:25:44;12.93;;;2.10;;
52368;SDS011;38298;50.346;3.526;2023-01-10T01:28:11;21.15;;;2.70;;
52368;SDS011;38298;50.346;3.526;2023-01-10T01:30:37;18.98;;;2.42;;
52368;SDS011;38298;50.346;3.526;2023-01-10T01:33:03;18.00;;;2.05;;
52368;SDS011;38298;50.346;3.526;2023-01-10T01:35:29;12.18;;;2.05;;
52368;SDS011;38298;50.346;3.526;2023-01-10T01:37:57;11.65;;;1.90;;
52368;SDS011;38298;50.346;3.526;2023-01-10T01:40:23;12.88;;;1.73;;
52368;SDS011;38298;50.346;3.526;2023-01-10T01:42:49;15.57;;;2.22;;
52368;SDS011;38298;50.346;3.526;2023-01-10T01:50:38;17.75;;;3.13;;
52368;SDS011;38298;50.346;3.526;2023-01-10T01:53:07;21.45;;;2.22;;
52368;SDS011;38298;50.346;3.526;2023-01-10T01:55:34;22.75;;;2.08;;
52368;SDS011;38298;50.346;3.526;2023-01-10T01:58:02;19.13;;;1.70;;
52368;SDS011;38298;50.346;3.526;2023-01-10T02:00:31;17.42;;;2.40;;
52368;SDS011;38298;50.346;3.526;2023-01-10T02:02:57;14.55;;;2.20;;
52368;SDS011;38298;50.346;3.526;2023-01-10T02:05:24;18.10;;;2.60;;
52368;SDS011;38298;50.346;3.526;2023-01-10T02:07:51;16.48;;;2.55;;
52368;SDS011;38298;50.346;3.526;2023-01-10T02:10:18;10.57;;;2.00;;
52368;SDS011;38298;50.346;3.526;2023-01-10T02:12:47;19.23;;;1.98;;
52368;SDS011;38298;50.346;3.526;2023-01-10T02:15:14;18.35;;;2.67;;
52368;SDS011;38298;50.346;3.526;2023-01-10T02:17:40;17.45;;;2.33;;
52368;SDS011;38298;50.346;3.526;2023-01-10T02:20:08;22.58;;;2.90;;
52368;SDS011;38298;50.346;3.526;2023-01-10T02:22:46;12.30;;;2.03;;
52368;SDS011;38298;50.346;3.526;2023-01-10T02:25:26;18.27;;;1.98;;
52368;SDS011;38298;50.346;3.526;2023-01-10T02:28:07;21.38;;;2.90;;
52368;SDS011;38298;50.346;3.526;2023-01-10T02:38:20;23.17;;;2.20;;
52368;SDS011;38298;50.346;3.526;2023-01-10T02:43:15;17.13;;;2.40;;
52368;SDS011;38298;50.346;3.526;2023-01-10T02:45:52;20.20;;;2.58;;
52368;SDS011;38298;50.346;3.526;2023-01-10T02:48:19;13.05;;;1.70;;
52368;SDS011;38298;50.346;3.526;2023-01-10T02:50:54;11.50;;;2.47;;
52368;SDS011;38298;50.346;3.526;2023-01-10T02:53:26;19.85;;;2.03;;
52368;SDS011;38298;50.346;3.526;2023-01-10T03:01:21;15.77;;;2.30;;
52368;SDS011;38298;50.346;3.526;2023-01-10T03:03:51;12.18;;;1.90;;
52368;SDS011;38298;50.346;3.526;2023-01-10T03:06:26;23.40;;;2.95;;
52368;SDS011;38298;50.346;3.526;2023-01-10T03:08:57;11.38;;;2.05;;
52368;SDS011;38298;50.346;3.526;2023-01-10T03:11:24;13.05;;;1.98;;
52368;SDS011;38298;50.346;3.526;2023-01-10T03:16:39;11.88;;;1.75;;
52368;SDS011;38298;50.346;3.526;2023-01-10T03:19:07;16.90;;;2.50;;
52368;SDS011;38298;50.346;3.526;2023-01-10T03:21:35;16.05;;;1.70;;
52368;SDS011;38298;50.346;3.526;2023-01-10T03:24:05;18.40;;;2.22;;
52368;SDS011;38298;50.346;3.526;2023-01-10T03:26:36;21.80;;;2.47;;
52368;SDS011;38298;50.346;3.526;2023-01-10T03:29:07;7.13;;;1.70;;
52368;SDS011;38298;50.346;3.526;2023-01-10T03:31:46;12.20;;;2.17;;
52368;SDS011;38298;50.346;3.526;2023-01-10T03:34:14;19.98;;;2.05;;
52368;SDS011;38298;50.346;3.526;2023-01-10T03:39:30;19.13;;;1.98;;
52368;SDS011;38298;50.346;3.526;2023-01-10T03:42:04;20.45;;;1.77;;
52368;SDS011;38298;50.346;3.526;2023-01-10T03:44:50;11.07;;;2.20;;
52368;SDS011;38298;50.346;3.526;2023-01-10T03:47:33;19.50;;;2.22;;
52368;SDS011;38298;50.346;3.526;2023-01-10T03:52:33;10.82;;;2.08;;
52368;SDS011;38298;50.346;3.526;2023-01-10T03:55:00;26.98;;;2.20;;
52368;SDS011;38298;50.346;3.526;2023-01-10T03:57:27;17.13;;;2.30;;
52368;SDS011;38298;50.346;3.526;2023-01-10T03:59:54;21.30;;;2.13;;
52368;SDS011;38298;50.346;3.526;2023-01-10T04:02:24;17.17;;;2.05;;
52368;SDS011;38298;50.346;3.526;2023-01-10T04:04:51;6.93;;;1.52;;
52368;SDS011;38298;50.346;3.526;2023-01-10T04:07:17;18.35;;;2.58;;
52368;SDS011;38298;50.346;3.526;2023-01-10T04:09:43;15.13;;;2.17;;
52368;SDS011;38298;50.346;3.526;2023-01-10T04:12:09;17.05;;;1.90;;
52368;SDS011;38298;50.346;3.526;2023-01-10T04:14:35;13.98;;;2.70;;
52368;SDS011;38298;50.346;3.526;2023-01-10T04:17:01;15.00;;;1.85;;
52368;SDS011;38298;50.346;3.526;2023-01-10T04:19:27;16.30;;;2.53;;
52368;SDS011;38298;50.346;3.526;2023-01-10T04:21:53;11.30;;;1.60;;
52368;SDS011;38298;50.346;3.526;2023-01-10T04:24:19;13.68;;;1.70;;
52368;SDS011;38298;50.346;3.526;2023-01-10T04:26:45;15.18;;;2.97;;
52368;SDS011;38298;50.346;3.526;2023-01-10T04:29:11;14.65;;;2.17;;
52368;SDS011;38298;50.346;3.526;2023-01-10T04:31:37;23.15;;;2.80;;
52368;SDS011;38298;50.346;3.526;2023-01-10T04:34:04;15.55;;;2.25;;
52368;SDS011;38298;50.346;3.526;2023-01-10T04:36:30;18.45;;;1.80;;
52368;SDS011;38298;50.346;3.526;2023-01-10T04:38:56;32.63;;;2.60;;
52368;SDS011;38298;50.346;3.526;2023-01-10T04:41:22;24.73;;;2.28;;
52368;SDS011;38298;50.346;3.526;2023-01-10T04:43:48;15.18;;;2.10;;
52368;SDS011;38298;50.346;3.526;2023-01-10T04:46:15;19.48;;;2.47;;
52368;SDS011;38298;50.346;3.526;2023-01-10T04:48:40;10.70;;;1.92;;
52368;SDS011;38298;50.346;3.526;2023-01-10T04:51:07;21.67;;;2.35;;
52368;SDS011;38298;50.346;3.526;2023-01-10T04:53:33;16.98;;;2.13;;
52368;SDS011;38298;50.346;3.526;2023-01-10T04:56:05;15.48;;;1.70;;
52368;SDS011;38298;50.346;3.526;2023-01-10T04:58:33;14.10;;;2.55;;
52368;SDS011;38298;50.346;3.526;2023-01-10T05:00:59;14.30;;;2.20;;
52368;SDS011;38298;50.346;3.526;2023-01-10T05:03:25;15.77;;;2.42;;
52368;SDS011;38298;50.346;3.526;2023-01-10T05:05:51;16.70;;;2.58;;
52368;SDS011;38298;50.346;3.526;2023-01-10T05:08:17;17.25;;;2.38;;
52368;SDS011;38298;50.346;3.526;2023-01-10T05:10:43;13.80;;;1.95;;
52368;SDS011;38298;50.346;3.526;2023-01-10T05:13:09;15.63;;;2.78;;
52368;SDS011;38298;50.346;3.526;2023-01-10T05:15:35;13.15;;;1.73;;
52368;SDS011;38298;50.346;3.526;2023-01-10T05:18:01;15.88;;;1.83;;
52368;SDS011;38298;50.346;3.526;2023-01-10T05:20:27;22.10;;;2.22;;
52368;SDS011;38298;50.346;3.526;2023-01-10T05:22:53;14.85;;;1.85;;
52368;SDS011;38298;50.346;3.526;2023-01-10T05:25:19;17.10;;;2.03;;
52368;SDS011;38298;50.346;3.526;2023-01-10T05:27:45;14.88;;;1.83;;
52368;SDS011;38298;50.346;3.526;2023-01-10T05:30:11;21.25;;;2.30;;
52368;SDS011;38298;50.346;3.526;2023-01-10T05:32:38;16.95;;;2.42;;
52368;SDS011;38298;50.346;3.526;2023-01-10T05:35:04;17.33;;;2.35;;
52368;SDS011;38298;50.346;3.526;2023-01-10T05:37:33;18.90;;;2.38;;
52368;SDS011;38298;50.346;3.526;2023-01-10T05:39:59;20.50;;;3.10;;
52368;SDS011;38298;50.346;3.526;2023-01-10T05:42:25;19.25;;;2.63;;
52368;SDS011;38298;50.346;3.526;2023-01-10T05:44:51;23.40;;;1.88;;
52368;SDS011;38298;50.346;3.526;2023-01-10T05:47:17;13.43;;;2.00;;
52368;SDS011;38298;50.346;3.526;2023-01-10T05:49:43;14.48;;;2.88;;
52368;SDS011;38298;50.346;3.526;2023-01-10T05:52:09;18.55;;;2.00;;
52368;SDS011;38298;50.346;3.526;2023-01-10T05:54:35;20.08;;;2.72;;
52368;SDS011;38298;50.346;3.526;2023-01-10T05:57:01;22.92;;;2.13;;
52368;SDS011;38298;50.346;3.526;2023-01-10T05:59:27;20.15;;;2.03;;
52368;SDS011;38298;50.346;3.526;2023-01-10T06:01:53;17.80;;;2.58;;
52368;SDS011;38298;50.346;3.526;2023-01-10T06:04:19;18.15;;;2.95;;
52368;SDS011;38298;50.346;3.526;2023-01-10T06:06:48;17.02;;;3.38;;
52368;SDS011;38298;50.346;3.526;2023-01-10T06:09:14;18.35;;;2.42;;
52368;SDS011;38298;50.346;3.526;2023-01-10T06:11:40;17.33;;;2.75;;
52368;SDS011;38298;50.346;3.526;2023-01-10T06:14:06;21.92;;;2.20;;
52368;SDS011;38298;50.346;3.526;2023-01-10T06:16:32;11.63;;;2.08;;
52368;SDS011;38298;50.346;3.526;2023-01-10T06:18:58;17.25;;;2.40;;
52368;SDS011;38298;50.346;3.526;2023-01-10T06:21:24;11.07;;;2.58;;
52368;SDS011;38298;50.346;3.526;2023-01-10T06:23:50;14.77;;;2.35;;
52368;SDS011;38298;50.346;3.526;2023-01-10T06:26:16;14.75;;;1.90;;
52368;SDS011;38298;50.346;3.526;2023-01-10T06:28:42;13.00;;;2.30;;
52368;SDS011;38298;50.346;3.526;2023-01-10T06:31:08;23.40;;;2.38;;
52368;SDS011;38298;50.346;3.526;2023-01-10T06:33:34;13.45;;;2.72;;
52368;SDS011;38298;50.346;3.526;2023-01-10T06:36:02;22.33;;;2.90;;
52368;SDS011;38298;50.346;3.526;2023-01-10T06:38:29;12.07;;;2.47;;
52368;SDS011;38298;50.346;3.526;2023-01-10T06:40:55;17.52;;;2.42;;
52368;SDS011;38298;50.346;3.526;2023-01-10T06:43:21;22.13;;;3.45;;
52368;SDS011;38298;50.346;3.526;2023-01-10T06:45:47;16.85;;;2.45;;
52368;SDS011;38298;50.346;3.526;2023-01-10T06:48:13;11.40;;;2.05;;
52368;SDS011;38298;50.346;3.526;2023-01-10T06:50:39;19.27;;;2.35;;
52368;SDS011;38298;50.346;3.526;2023-01-10T06:53:05;15.70;;;2.83;;
52368;SDS011;38298;50.346;3.526;2023-01-10T06:55:31;16.35;;;3.10;;
52368;SDS011;38298;50.346;3.526;2023-01-10T06:58:02;19.17;;;2.00;;
52368;SDS011;38298;50.346;3.526;2023-01-10T07:00:28;12.82;;;1.88;;
52368;SDS011;38298;50.346;3.526;2023-01-10T07:02:58;22.08;;;2.92;;
52368;SDS011;38298;50.346;3.526;2023-01-10T07:05:24;17.75;;;3.45;;
52368;SDS011;38298;50.346;3.526;2023-01-10T07:07:51;11.10;;;1.90;;
52368;SDS011;38298;50.346;3.526;2023-01-10T07:10:17;11.70;;;2.35;;
52368;SDS011;38298;50.346;3.526;2023-01-10T07:12:43;16.27;;;2.38;;
52368;SDS011;38298;50.346;3.526;2023-01-10T07:15:09;19.65;;;2.15;;
52368;SDS011;38298;50.346;3.526;2023-01-10T07:17:35;26.85;;;3.00;;
52368;SDS011;38298;50.346;3.526;2023-01-10T07:20:01;18.60;;;2.08;;
52368;SDS011;38298;50.346;3.526;2023-01-10T07:22:27;13.73;;;2.33;;
52368;SDS011;38298;50.346;3.526;2023-01-10T07:24:53;19.33;;;2.25;;
52368;SDS011;38298;50.346;3.526;2023-01-10T07:27:19;12.98;;;1.98;;
52368;SDS011;38298;50.346;3.526;2023-01-10T07:29:45;23.50;;;2.70;;
52368;SDS011;38298;50.346;3.526;2023-01-10T07:32:11;21.48;;;2.38;;
52368;SDS011;38298;50.346;3.526;2023-01-10T07:34:37;18.50;;;2.13;;
52368;SDS011;38298;50.346;3.526;2023-01-10T07:37:03;13.07;;;1.90;;
52368;SDS011;38298;50.346;3.526;2023-01-10T07:39:29;20.80;;;2.97;;
52368;SDS011;38298;50.346;3.526;2023-01-10T07:41:55;16.92;;;2.25;;
52368;SDS011;38298;50.346;3.526;2023-01-10T07:44:21;22.73;;;3.25;;
52368;SDS011;38298;50.346;3.526;2023-01-10T07:46:48;12.35;;;2.28;;
52368;SDS011;38298;50.346;3.526;2023-01-10T07:49:14;14.75;;;2.00;;
52368;SDS011;38298;50.346;3.526;2023-01-10T07:51:40;13.48;;;2.10;;
52368;SDS011;38298;50.346;3.526;2023-01-10T07:54:05;15.90;;;2.55;;
52368;SDS011;38298;50.346;3.526;2023-01-10T07:56:32;20.10;;;3.45;;
52368;SDS011;38298;50.346;3.526;2023-01-10T07:58:57;27.45;;;2.65;;
52368;SDS011;38298;50.346;3.526;2023-01-10T08:01:25;13.57;;;2.60;;
52368;SDS011;38298;50.346;3.526;2023-01-10T08:03:51;13.30;;;2.20;;
52368;SDS011;38298;50.346;3.526;2023-01-10T08:06:17;15.52;;;2.50;;
52368;SDS011;38298;50.346;3.526;2023-01-10T08:08:43;12.85;;;2.10;;
52368;SDS011;38298;50.346;3.526;2023-01-10T08:11:09;15.82;;;2.28;;
52368;SDS011;38298;50.346;3.526;2023-01-10T08:13:35;17.30;;;3.25;;
52368;SDS011;38298;50.346;3.526;2023-01-10T08:16:04;16.30;;;2.63;;
52368;SDS011;38298;50.346;3.526;2023-01-10T08:18:30;23.57;;;3.60;;
52368;SDS011;38298;50.346;3.526;2023-01-10T08:20:56;23.50;;;2.72;;
52368;SDS011;38298;50.346;3.526;2023-01-10T08:23:23;15.07;;;2.67;;
52368;SDS011;38298;50.346;3.526;2023-01-10T08:25:49;17.45;;;2.25;;
52368;SDS011;38298;50.346;3.526;2023-01-10T08:28:15;15.80;;;2.17;;
52368;SDS011;38298;50.346;3.526;2023-01-10T08:30:42;23.42;;;2.78;;
52368;SDS011;38298;50.346;3.526;2023-01-10T08:33:08;28.23;;;3.83;;
52368;SDS011;38298;50.346;3.526;2023-01-10T08:35:44;25.80;;;3.63;;
52368;SDS011;38298;50.346;3.526;2023-01-10T08:38:10;19.40;;;2.70;;
52368;SDS011;38298;50.346;3.526;2023-01-10T08:40:36;13.45;;;2.67;;
52368;SDS011;38298;50.346;3.526;2023-01-10T08:43:03;9.90;;;1.70;;
52368;SDS011;38298;50.346;3.526;2023-01-10T08:45:30;20.23;;;2.60;;
52368;SDS011;38298;50.346;3.526;2023-01-10T08:47:56;9.63;;;2.22;;
52368;SDS011;38298;50.346;3.526;2023-01-10T08:50:25;12.87;;;2.23;;
52368;SDS011;38298;50.346;3.526;2023-01-10T08:52:51;10.73;;;2.50;;
52368;SDS011;38298;50.346;3.526;2023-01-10T08:55:18;15.90;;;2.53;;
52368;SDS011;38298;50.346;3.526;2023-01-10T08:57:44;20.60;;;2.50;;
52368;SDS011;38298;50.346;3.526;2023-01-10T09:00:10;14.18;;;2.70;;
52368;SDS011;38298;50.346;3.526;2023-01-10T09:02:38;13.27;;;2.28;;
52368;SDS011;38298;50.346;3.526;2023-01-10T09:05:04;15.23;;;2.65;;
52368;SDS011;38298;50.346;3.526;2023-01-10T09:07:30;14.98;;;2.80;;
52368;SDS011;38298;50.346;3.526;2023-01-10T09:09:56;13.15;;;2.25;;
52368;SDS011;38298;50.346;3.526;2023-01-10T09:12:22;19.23;;;2.22;;
52368;SDS011;38298;50.346;3.526;2023-01-10T09:15:07;20.33;;;2.33;;
52368;SDS011;38298;50.346;3.526;2023-01-10T09:17:33;20.02;;;2.70;;
52368;SDS011;38298;50.346;3.526;2023-01-10T09:19:59;15.80;;;2.63;;
52368;SDS011;38298;50.346;3.526;2023-01-10T09:22:45;19.25;;;3.53;;
52368;SDS011;38298;50.346;3.526;2023-01-10T09:25:11;17.55;;;3.25;;
52368;SDS011;38298;50.346;3.526;2023-01-10T09:27:37;14.50;;;3.38;;
52368;SDS011;38298;50.346;3.526;2023-01-10T09:30:03;15.98;;;3.13;;
52368;SDS011;38298;50.346;3.526;2023-01-10T09:32:42;15.55;;;2.92;;
52368;SDS011;38298;50.346;3.526;2023-01-10T09:35:08;16.30;;;2.80;;
52368;SDS011;38298;50.346;3.526;2023-01-10T09:37:34;17.63;;;3.17;;
52368;SDS011;38298;50.346;3.526;2023-01-10T09:40:01;23.55;;;2.67;;
52368;SDS011;38298;50.346;3.526;2023-01-10T09:50:00;10.20;;;1.98;;
52368;SDS011;38298;50.346;3.526;2023-01-10T09:52:32;18.48;;;2.30;;
52368;SDS011;38298;50.346;3.526;2023-01-10T09:55:01;11.80;;;1.90;;
52368;SDS011;38298;50.346;3.526;2023-01-10T09:57:27;20.80;;;2.97;;
52368;SDS011;38298;50.346;3.526;2023-01-10T09:59:53;19.88;;;3.00;;
52368;SDS011;38298;50.346;3.526;2023-01-10T10:04:48;18.48;;;2.92;;
52368;SDS011;38298;50.346;3.526;2023-01-10T10:07:17;16.45;;;2.67;;
52368;SDS011;38298;50.346;3.526;2023-01-10T10:09:44;11.75;;;2.30;;
52368;SDS011;38298;50.346;3.526;2023-01-10T10:17:22;10.35;;;1.88;;
52368;SDS011;38298;50.346;3.526;2023-01-10T10:22:56;16.15;;;2.53;;
52368;SDS011;38298;50.346;3.526;2023-01-10T10:25:41;16.48;;;2.17;;
52368;SDS011;38298;50.346;3.526;2023-01-10T10:28:12;14.02;;;2.90;;
52368;SDS011;38298;50.346;3.526;2023-01-10T10:33:14;13.63;;;2.50;;
52368;SDS011;38298;50.346;3.526;2023-01-10T10:36:07;16.25;;;2.58;;
52368;SDS011;38298;50.346;3.526;2023-01-10T10:38:30;12.90;;;2.03;;
52368;SDS011;38298;50.346;3.526;2023-01-10T10:40:58;13.60;;;2.22;;
52368;SDS011;38298;50.346;3.526;2023-01-10T10:43:32;13.45;;;1.95;;
52368;SDS011;38298;50.346;3.526;2023-01-10T10:46:04;16.27;;;2.47;;
52368;SDS011;38298;50.346;3.526;2023-01-10T10:48:33;10.98;;;2.20;;
52368;SDS011;38298;50.346;3.526;2023-01-10T10:53:27;17.55;;;2.85;;
52368;SDS011;38298;50.346;3.526;2023-01-10T10:55:53;16.35;;;2.00;;
52368;SDS011;38298;50.346;3.526;2023-01-10T10:58:20;13.93;;;3.03;;
52368;SDS011;38298;50.346;3.526;2023-01-10T11:00:46;11.75;;;2.33;;
52368;SDS011;38298;50.346;3.526;2023-01-10T11:05:42;11.55;;;2.00;;
52368;SDS011;38298;50.346;3.526;2023-01-10T11:08:10;9.93;;;2.35;;
52368;SDS011;38298;50.346;3.526;2023-01-10T11:10:41;15.75;;;2.30;;
52368;SDS011;38298;50.346;3.526;2023-01-10T11:15:35;11.88;;;2.38;;
52368;SDS011;38298;50.346;3.526;2023-01-10T11:18:05;15.88;;;2.22;;
52368;SDS011;38298;50.346;3.526;2023-01-10T11:20:32;11.80;;;1.88;;
52368;SDS011;38298;50.346;3.526;2023-01-10T11:22:59;16.88;;;2.08;;
52368;SDS011;38298;50.346;3.526;2023-01-10T11:25:25;16.73;;;2.30;;
52368;SDS011;38298;50.346;3.526;2023-01-10T11:27:52;13.57;;;2.83;;
52368;SDS011;38298;50.346;3.526;2023-01-10T11:30:29;11.13;;;3.00;;
52368;SDS011;38298;50.346;3.526;2023-01-10T11:32:58;15.45;;;2.45;;
52368;SDS011;38298;50.346;3.526;2023-01-10T11:35:29;12.82;;;2.50;;
52368;SDS011;38298;50.346;3.526;2023-01-10T11:38:03;12.52;;;2.53;;
52368;SDS011;38298;50.346;3.526;2023-01-10T11:40:30;12.63;;;2.67;;
52368;SDS011;38298;50.346;3.526;2023-01-10T11:42:57;10.90;;;2.15;;
52368;SDS011;38298;50.346;3.526;2023-01-10T11:45:24;12.18;;;2.97;;
52368;SDS011;38298;50.346;3.526;2023-01-10T11:47:52;15.30;;;2.15;;
52368;SDS011;38298;50.346;3.526;2023-01-10T11:50:26;17.35;;;2.50;;
52368;SDS011;38298;50.346;3.526;2023-01-10T11:52:53;15.10;;;3.13;;
52368;SDS011;38298;50.346;3.526;2023-01-10T11:55:20;13.05;;;2.25;;
52368;SDS011;38298;50.346;3.526;2023-01-10T12:00:36;12.63;;;2.50;;
52368;SDS011;38298;50.346;3.526;2023-01-10T12:03:04;19.50;;;2.58;;
52368;SDS011;38298;50.346;3.526;2023-01-10T12:05:39;18.58;;;2.35;;
52368;SDS011;38298;50.346;3.526;2023-01-10T12:08:05;13.02;;;2.45;;
52368;SDS011;38298;50.346;3.526;2023-01-10T12:10:33;17.70;;;2.45;;
52368;SDS011;38298;50.346;3.526;2023-01-10T12:13:06;12.90;;;2.95;;
52368;SDS011;38298;50.346;3.526;2023-01-10T12:15:37;17.13;;;2.40;;
52368;SDS011;38298;50.346;3.526;2023-01-10T12:18:03;11.77;;;2.40;;
52368;SDS011;38298;50.346;3.526;2023-01-10T12:20:30;14.02;;;2.08;;
52368;SDS011;38298;50.346;3.526;2023-01-10T12:23:04;9.55;;;2.38;;
52368;SDS011;38298;50.346;3.526;2023-01-10T12:25:39;9.65;;;2.33;;
52368;SDS011;38298;50.346;3.526;2023-01-10T12:28:25;14.43;;;2.22;;
52368;SDS011;38298;50.346;3.526;2023-01-10T12:30:52;13.80;;;2.20;;
52368;SDS011;38298;50.346;3.526;2023-01-10T12:33:21;11.35;;;2.53;;
52368;SDS011;38298;50.346;3.526;2023-01-10T12:38:32;12.38;;;1.83;;
52368;SDS011;38298;50.346;3.526;2023-01-10T12:41:22;14.75;;;2.35;;
52368;SDS011;38298;50.346;3.526;2023-01-10T12:44:13;17.80;;;2.35;;
52368;SDS011;38298;50.346;3.526;2023-01-10T12:46:44;11.65;;;1.95;;
52368;SDS011;38298;50.346;3.526;2023-01-10T12:49:19;7.60;;;1.70;;
52368;SDS011;38298;50.346;3.526;2023-01-10T12:51:46;14.23;;;1.63;;
52368;SDS011;38298;50.346;3.526;2023-01-10T12:54:31;10.82;;;1.55;;
52368;SDS011;38298;50.346;3.526;2023-01-10T12:56:57;14.35;;;1.85;;
52368;SDS011;38298;50.346;3.526;2023-01-10T12:59:30;11.85;;;1.90;;
52368;SDS011;38298;50.346;3.526;2023-01-10T13:02:01;11.30;;;1.90;;
52368;SDS011;38298;50.346;3.526;2023-01-10T13:04:27;16.90;;;1.85;;
52368;SDS011;38298;50.346;3.526;2023-01-10T13:06:55;6.32;;;2.20;;
52368;SDS011;38298;50.346;3.526;2023-01-10T13:09:23;10.73;;;1.60;;
52368;SDS011;38298;50.346;3.526;2023-01-10T13:12:05;5.45;;;1.42;;
52368;SDS011;38298;50.346;3.526;2023-01-10T13:14:39;7.07;;;1.27;;
52368;SDS011;38298;50.346;3.526;2023-01-10T13:17:15;6.15;;;1.58;;
52368;SDS011;38298;50.346;3.526;2023-01-10T13:19:43;5.68;;;1.55;;
52368;SDS011;38298;50.346;3.526;2023-01-10T13:22:29;7.28;;;1.90;;
52368;SDS011;38298;50.346;3.526;2023-01-10T13:24:59;9.55;;;1.85;;
52368;SDS011;38298;50.346;3.526;2023-01-10T13:27:32;6.32;;;1.58;;
52368;SDS011;38298;50.346;3.526;2023-01-10T13:29:59;11.07;;;1.73;;
52368;SDS011;38298;50.346;3.526;2023-01-10T13:32:30;8.43;;;1.73;;
52368;SDS011;38298;50.346;3.526;2023-01-10T13:37:39;10.43;;;1.98;;
52368;SDS011;38298;50.346;3.526;2023-01-10T13:40:06;4.82;;;1.20;;
52368;SDS011;38298;50.346;3.526;2023-01-10T13:45:19;4.55;;;1.38;;
52368;SDS011;38298;50.346;3.526;2023-01-10T13:55:48;9.85;;;1.55;;
52368;SDS011;38298;50.346;3.526;2023-01-10T13:58:38;7.60;;;1.42;;
52368;SDS011;38298;50.346;3.526;2023-01-10T14:01:33;4.30;;;1.33;;
52368;SDS011;38298;50.346;3.526;2023-01-10T14:04:20;5.43;;;1.27;;
52368;SDS011;38298;50.346;3.526;2023-01-10T14:06:50;3.40;;;0.98;;
52368;SDS011;38298;50.346;3.526;2023-01-10T14:16:55;1.65;;;0.88;;
52368;SDS011;38298;50.346;3.526;2023-01-10T14:19:23;3.22;;;1.00;;
52368;SDS011;38298;50.346;3.526;2023-01-10T14:21:51;2.17;;;1.00;;
52368;SDS011;38298;50.346;3.526;2023-01-10T14:24:26;2.45;;;0.77;;
52368;SDS011;38298;50.346;3.526;2023-01-10T14:26:57;3.15;;;0.77;;
52368;SDS011;38298;50.346;3.526;2023-01-10T14:29:24;5.32;;;0.95;;
52368;SDS011;38298;50.346;3.526;2023-01-10T14:31:52;5.05;;;1.05;;
52368;SDS011;38298;50.346;3.526;2023-01-10T14:34:22;5.15;;;1.00;;
52368;SDS011;38298;50.346;3.526;2023-01-10T14:39:22;1.15;;;0.70;;
52368;SDS011;38298;50.346;3.526;2023-01-10T14:41:49;4.13;;;1.00;;
52368;SDS011;38298;50.346;3.526;2023-01-10T14:44:25;3.20;;;1.00;;
52368;SDS011;38298;50.346;3.526;2023-01-10T14:46:53;1.58;;;0.60;;
52368;SDS011;38298;50.346;3.526;2023-01-10T14:49:24;3.88;;;0.90;;
52368;SDS011;38298;50.346;3.526;2023-01-10T14:51:51;1.23;;;0.90;;
52368;SDS011;38298;50.346;3.526;2023-01-10T14:54:19;4.22;;;0.93;;
52368;SDS011;38298;50.346;3.526;2023-01-10T14:56:48;4.28;;;0.80;;
52368;SDS011;38298;50.346;3.526;2023-01-10T14:59:30;1.13;;;0.60;;
52368;SDS011;38298;50.346;3.526;2023-01-10T15:02:02;1.65;;;0.98;;
52368;SDS011;38298;50.346;3.526;2023-01-10T15:04:30;4.10;;;1.50;;
52368;SDS011;38298;50.346;3.526;2023-01-10T15:07:01;2.35;;;1.00;;
52368;SDS011;38298;50.346;3.526;2023-01-10T15:09:29;4.22;;;1.15;;
52368;SDS011;38298;50.346;3.526;2023-01-10T15:11:56;7.70;;;1.40;;
52368;SDS011;38298;50.346;3.526;2023-01-10T15:14:23;1.92;;;0.60;;
52368;SDS011;38298;50.346;3.526;2023-01-10T15:16:51;2.22;;;0.73;;
52368;SDS011;38298;50.346;3.526;2023-01-10T15:19:19;0.60;;;0.60;;
52368;SDS011;38298;50.346;3.526;2023-01-10T15:21:46;2.13;;;0.68;;
52368;SDS011;38298;50.346;3.526;2023-01-10T15:24:32;0.85;;;0.70;;
52368;SDS011;38298;50.346;3.526;2023-01-10T15:26:59;0.80;;;0.50;;
52368;SDS011;38298;50.346;3.526;2023-01-10T15:29:26;1.70;;;0.82;;
52368;SDS011;38298;50.346;3.526;2023-01-10T15:31:53;1.02;;;0.55;;
52368;SDS011;38298;50.346;3.526;2023-01-10T15:34:21;3.03;;;0.80;;
52368;SDS011;38298;50.346;3.526;2023-01-10T15:36:49;3.75;;;1.02;;
52368;SDS011;38298;50.346;3.526;2023-01-10T15:39:17;6.72;;;0.93;;
52368;SDS011;38298;50.346;3.526;2023-01-10T15:41:44;0.80;;;0.80;;
52368;SDS011;38298;50.346;3.526;2023-01-10T15:44:44;2.33;;;0.90;;
52368;SDS011;38298;50.346;3.526;2023-01-10T15:47:03;1.45;;;0.90;;
52368;SDS011;38298;50.346;3.526;2023-01-10T15:49:29;1.27;;;0.80;;
52368;SDS011;38298;50.346;3.526;2023-01-10T15:51:55;3.33;;;0.98;;
52368;SDS011;38298;50.346;3.526;2023-01-10T15:56:55;2.08;;;1.13;;
52368;SDS011;38298;50.346;3.526;2023-01-10T15:59:29;6.97;;;1.30;;
52368;SDS011;38298;50.346;3.526;2023-01-10T16:04:46;3.63;;;1.20;;
52368;SDS011;38298;50.346;3.526;2023-01-10T16:09:58;3.75;;;1.45;;
52368;SDS011;38298;50.346;3.526;2023-01-10T16:12:36;2.10;;;1.25;;
52368;SDS011;38298;50.346;3.526;2023-01-10T16:15:22;3.92;;;1.13;;
52368;SDS011;38298;50.346;3.526;2023-01-10T16:17:49;1.88;;;1.20;;
52368;SDS011;38298;50.346;3.526;2023-01-10T16:20:16;1.55;;;1.38;;
52368;SDS011;38298;50.346;3.526;2023-01-10T16:22:43;2.25;;;1.95;;